sensor_id;sensor_type;location;lat;lon;timestamp;P1;durP1;ratioP1;P2;durP2;ratioP2
19733;SDS011;10018;51.230;7.860;2023-04-03T00:00:06;12.10;;;8.10;;
19733;SDS011;10018;51.230;7.860;2023-04-03T00:02:32;14.03;;;9.07;;
19733;SDS011;10018;51.230;7.860;2023-04-03T00:04:58;12.67;;;8.83;;
19733;SDS011;10018;51.230;7.860;2023-04-03T00:07:24;14.77;;;9.93;;
19733;SDS011;10018;51.230;7.860;2023-04-03T00:09:49;13.07;;;9.27;;
19733;SDS011;10018;51.230;7.860;2023-04-03T00:12:15;15.33;;;9.73;;
19733;SDS011;10018;51.230;7.860;2023-04-03T00:14:41;17.13;;;9.27;;
19733;SDS011;10018;51.230;7.860;2023-04-03T00:17:06;13.43;;;9.80;;
19733;SDS011;10018;51.230;7.860;2023-04-03T00:19:32;14.67;;;9.67;;
19733;SDS011;10018;51.230;7.860;2023-04-03T00:21:57;15.33;;;9.77;;
19733;SDS011;10018;51.230;7.860;2023-04-03T00:24:25;15.47;;;10.03;;
19733;SDS011;10018;51.230;7.860;2023-04-03T00:26:51;16.70;;;10.13;;
19733;SDS011;10018;51.230;7.860;2023-04-03T00:29:16;14.07;;;9.63;;
19733;SDS011;10018;51.230;7.860;2023-04-03T00:31:42;13.47;;;9.67;;
19733;SDS011;10018;51.230;7.860;2023-04-03T00:34:07;13.10;;;8.93;;
19733;SDS011;10018;51.230;7.860;2023-04-03T00:36:33;17.57;;;10.00;;
19733;SDS011;10018;51.230;7.860;2023-04-03T00:38:58;16.53;;;10.20;;
19733;SDS011;10018;51.230;7.860;2023-04-03T00:41:26;14.63;;;10.03;;
19733;SDS011;10018;51.230;7.860;2023-04-03T00:43:52;17.47;;;10.07;;
19733;SDS011;10018;51.230;7.860;2023-04-03T00:46:20;18.37;;;10.63;;
19733;SDS011;10018;51.230;7.860;2023-04-03T00:48:46;16.87;;;9.93;;
19733;SDS011;10018;51.230;7.860;2023-04-03T00:51:14;16.50;;;10.63;;
19733;SDS011;10018;51.230;7.860;2023-04-03T00:53:46;17.57;;;10.97;;
19733;SDS011;10018;51.230;7.860;2023-04-03T00:56:16;16.00;;;10.63;;
19733;SDS011;10018;51.230;7.860;2023-04-03T00:58:46;13.93;;;9.93;;
19733;SDS011;10018;51.230;7.860;2023-04-03T01:01:24;16.63;;;10.37;;
19733;SDS011;10018;51.230;7.860;2023-04-03T01:03:51;15.20;;;9.73;;
19733;SDS011;10018;51.230;7.860;2023-04-03T01:06:21;14.73;;;10.20;;
19733;SDS011;10018;51.230;7.860;2023-04-03T01:08:51;15.47;;;9.90;;
19733;SDS011;10018;51.230;7.860;2023-04-03T01:11:17;18.23;;;11.13;;
19733;SDS011;10018;51.230;7.860;2023-04-03T01:13:43;18.03;;;10.03;;
19733;SDS011;10018;51.230;7.860;2023-04-03T01:16:09;19.13;;;10.80;;
19733;SDS011;10018;51.230;7.860;2023-04-03T01:18:35;14.10;;;9.97;;
19733;SDS011;10018;51.230;7.860;2023-04-03T01:23:56;16.43;;;10.53;;
19733;SDS011;10018;51.230;7.860;2023-04-03T01:26:46;17.93;;;10.77;;
19733;SDS011;10018;51.230;7.860;2023-04-03T01:29:14;15.37;;;10.17;;
19733;SDS011;10018;51.230;7.860;2023-04-03T01:31:53;15.77;;;10.23;;
19733;SDS011;10018;51.230;7.860;2023-04-03T01:34:21;15.87;;;10.40;;
19733;SDS011;10018;51.230;7.860;2023-04-03T01:36:47;15.20;;;10.47;;
19733;SDS011;10018;51.230;7.860;2023-04-03T01:39:13;15.67;;;9.63;;
19733;SDS011;10018;51.230;7.860;2023-04-03T01:41:38;14.23;;;10.13;;
19733;SDS011;10018;51.230;7.860;2023-04-03T01:44:04;16.83;;;10.60;;
19733;SDS011;10018;51.230;7.860;2023-04-03T01:46:30;13.73;;;9.93;;
19733;SDS011;10018;51.230;7.860;2023-04-03T01:48:56;13.73;;;9.93;;
19733;SDS011;10018;51.230;7.860;2023-04-03T01:51:26;15.30;;;10.30;;
19733;SDS011;10018;51.230;7.860;2023-04-03T01:53:52;16.03;;;10.30;;
19733;SDS011;10018;51.230;7.860;2023-04-03T01:56:17;16.07;;;9.83;;
19733;SDS011;10018;51.230;7.860;2023-04-03T01:58:46;15.13;;;10.53;;
19733;SDS011;10018;51.230;7.860;2023-04-03T02:01:14;16.33;;;10.33;;
19733;SDS011;10018;51.230;7.860;2023-04-03T02:03:40;15.70;;;10.17;;
19733;SDS011;10018;51.230;7.860;2023-04-03T02:06:06;15.30;;;9.67;;
19733;SDS011;10018;51.230;7.860;2023-04-03T02:08:40;13.27;;;9.77;;
19733;SDS011;10018;51.230;7.860;2023-04-03T02:11:08;15.03;;;9.57;;
19733;SDS011;10018;51.230;7.860;2023-04-03T02:13:34;14.90;;;9.20;;
19733;SDS011;10018;51.230;7.860;2023-04-03T02:16:08;13.93;;;8.57;;
19733;SDS011;10018;51.230;7.860;2023-04-03T02:18:37;15.50;;;8.80;;
19733;SDS011;10018;51.230;7.860;2023-04-03T02:21:03;12.20;;;8.57;;
19733;SDS011;10018;51.230;7.860;2023-04-03T02:23:32;14.00;;;7.83;;
19733;SDS011;10018;51.230;7.860;2023-04-03T02:26:11;13.47;;;8.20;;
19733;SDS011;10018;51.230;7.860;2023-04-03T02:28:38;14.30;;;8.23;;
19733;SDS011;10018;51.230;7.860;2023-04-03T02:31:05;12.77;;;7.43;;
19733;SDS011;10018;51.230;7.860;2023-04-03T02:33:31;11.90;;;7.17;;
19733;SDS011;10018;51.230;7.860;2023-04-03T02:36:02;12.87;;;8.03;;
19733;SDS011;10018;51.230;7.860;2023-04-03T02:38:41;13.97;;;7.93;;
19733;SDS011;10018;51.230;7.860;2023-04-03T02:41:07;10.50;;;7.63;;
19733;SDS011;10018;51.230;7.860;2023-04-03T02:43:36;12.57;;;7.93;;
19733;SDS011;10018;51.230;7.860;2023-04-03T02:46:02;13.40;;;8.67;;
19733;SDS011;10018;51.230;7.860;2023-04-03T02:48:40;13.93;;;9.23;;
19733;SDS011;10018;51.230;7.860;2023-04-03T02:51:06;14.57;;;8.87;;
19733;SDS011;10018;51.230;7.860;2023-04-03T02:53:34;13.37;;;8.57;;
19733;SDS011;10018;51.230;7.860;2023-04-03T02:55:59;15.03;;;9.27;;
19733;SDS011;10018;51.230;7.860;2023-04-03T02:58:25;15.20;;;8.97;;
19733;SDS011;10018;51.230;7.860;2023-04-03T03:00:53;13.10;;;9.27;;
19733;SDS011;10018;51.230;7.860;2023-04-03T03:03:19;14.00;;;9.00;;
19733;SDS011;10018;51.230;7.860;2023-04-03T03:05:44;13.80;;;9.03;;
19733;SDS011;10018;51.230;7.860;2023-04-03T03:08:10;13.50;;;8.50;;
19733;SDS011;10018;51.230;7.860;2023-04-03T03:10:36;14.90;;;8.80;;
19733;SDS011;10018;51.230;7.860;2023-04-03T03:13:04;13.50;;;8.23;;
19733;SDS011;10018;51.230;7.860;2023-04-03T03:15:32;11.87;;;7.87;;
19733;SDS011;10018;51.230;7.860;2023-04-03T03:17:57;12.47;;;7.97;;
19733;SDS011;10018;51.230;7.860;2023-04-03T03:20:25;12.30;;;8.07;;
19733;SDS011;10018;51.230;7.860;2023-04-03T03:22:51;12.50;;;8.37;;
19733;SDS011;10018;51.230;7.860;2023-04-03T03:25:16;16.23;;;8.73;;
19733;SDS011;10018;51.230;7.860;2023-04-03T03:27:42;13.87;;;8.63;;
19733;SDS011;10018;51.230;7.860;2023-04-03T03:30:07;11.37;;;7.60;;
19733;SDS011;10018;51.230;7.860;2023-04-03T03:32:36;12.27;;;7.80;;
19733;SDS011;10018;51.230;7.860;2023-04-03T03:35:01;12.50;;;7.80;;
19733;SDS011;10018;51.230;7.860;2023-04-03T03:37:27;13.50;;;7.63;;
19733;SDS011;10018;51.230;7.860;2023-04-03T03:39:53;14.17;;;8.17;;
19733;SDS011;10018;51.230;7.860;2023-04-03T03:42:18;12.63;;;7.87;;
19733;SDS011;10018;51.230;7.860;2023-04-03T03:44:44;12.10;;;7.80;;
19733;SDS011;10018;51.230;7.860;2023-04-03T03:47:10;14.83;;;7.83;;
19733;SDS011;10018;51.230;7.860;2023-04-03T03:49:36;13.27;;;7.60;;
19733;SDS011;10018;51.230;7.860;2023-04-03T03:52:01;11.40;;;7.00;;
19733;SDS011;10018;51.230;7.860;2023-04-03T03:54:27;12.87;;;7.50;;
19733;SDS011;10018;51.230;7.860;2023-04-03T03:56:52;11.70;;;7.27;;
19733;SDS011;10018;51.230;7.860;2023-04-03T03:59:18;11.60;;;7.53;;
19733;SDS011;10018;51.230;7.860;2023-04-03T04:01:43;14.73;;;7.40;;
19733;SDS011;10018;51.230;7.860;2023-04-03T04:04:09;11.60;;;7.07;;
19733;SDS011;10018;51.230;7.860;2023-04-03T04:06:35;13.13;;;7.50;;
19733;SDS011;10018;51.230;7.860;2023-04-03T04:09:01;10.50;;;7.03;;
19733;SDS011;10018;51.230;7.860;2023-04-03T04:11:26;14.33;;;6.83;;
19733;SDS011;10018;51.230;7.860;2023-04-03T04:13:54;12.93;;;6.60;;
19733;SDS011;10018;51.230;7.860;2023-04-03T04:16:19;10.73;;;6.10;;
19733;SDS011;10018;51.230;7.860;2023-04-03T04:18:45;11.97;;;6.97;;
19733;SDS011;10018;51.230;7.860;2023-04-03T04:21:10;13.07;;;6.97;;
19733;SDS011;10018;51.230;7.860;2023-04-03T04:23:36;10.90;;;6.07;;
19733;SDS011;10018;51.230;7.860;2023-04-03T04:26:04;10.60;;;6.00;;
19733;SDS011;10018;51.230;7.860;2023-04-03T04:28:29;9.47;;;5.50;;
19733;SDS011;10018;51.230;7.860;2023-04-03T04:30:55;11.00;;;7.13;;
19733;SDS011;10018;51.230;7.860;2023-04-03T04:33:23;11.50;;;6.73;;
19733;SDS011;10018;51.230;7.860;2023-04-03T04:35:49;9.17;;;5.67;;
19733;SDS011;10018;51.230;7.860;2023-04-03T04:38:14;9.27;;;5.30;;
19733;SDS011;10018;51.230;7.860;2023-04-03T04:40:40;9.87;;;5.30;;
19733;SDS011;10018;51.230;7.860;2023-04-03T04:43:06;11.97;;;5.77;;
19733;SDS011;10018;51.230;7.860;2023-04-03T04:45:32;9.67;;;5.10;;
19733;SDS011;10018;51.230;7.860;2023-04-03T04:47:57;10.27;;;5.10;;
19733;SDS011;10018;51.230;7.860;2023-04-03T04:50:23;8.67;;;4.77;;
19733;SDS011;10018;51.230;7.860;2023-04-03T04:52:48;9.47;;;5.20;;
19733;SDS011;10018;51.230;7.860;2023-04-03T04:55:16;8.60;;;4.63;;
19733;SDS011;10018;51.230;7.860;2023-04-03T04:57:42;9.07;;;4.60;;
19733;SDS011;10018;51.230;7.860;2023-04-03T05:00:07;9.87;;;5.23;;
19733;SDS011;10018;51.230;7.860;2023-04-03T05:02:35;10.33;;;5.60;;
19733;SDS011;10018;51.230;7.860;2023-04-03T05:05:01;11.40;;;5.13;;
19733;SDS011;10018;51.230;7.860;2023-04-03T05:07:29;10.73;;;5.47;;
19733;SDS011;10018;51.230;7.860;2023-04-03T05:09:54;9.47;;;5.63;;
19733;SDS011;10018;51.230;7.860;2023-04-03T05:12:20;11.87;;;5.50;;
19733;SDS011;10018;51.230;7.860;2023-04-03T05:14:45;11.83;;;6.27;;
19733;SDS011;10018;51.230;7.860;2023-04-03T05:17:11;13.00;;;6.47;;
19733;SDS011;10018;51.230;7.860;2023-04-03T05:19:37;12.97;;;6.90;;
19733;SDS011;10018;51.230;7.860;2023-04-03T05:22:02;16.50;;;7.37;;
19733;SDS011;10018;51.230;7.860;2023-04-03T05:24:28;15.80;;;7.83;;
19733;SDS011;10018;51.230;7.860;2023-04-03T05:26:55;12.70;;;6.93;;
19733;SDS011;10018;51.230;7.860;2023-04-03T05:29:21;12.83;;;7.20;;
19733;SDS011;10018;51.230;7.860;2023-04-03T05:31:48;10.43;;;6.07;;
19733;SDS011;10018;51.230;7.860;2023-04-03T05:34:15;10.70;;;6.37;;
19733;SDS011;10018;51.230;7.860;2023-04-03T05:36:40;11.33;;;6.20;;
19733;SDS011;10018;51.230;7.860;2023-04-03T05:39:06;10.73;;;5.63;;
19733;SDS011;10018;51.230;7.860;2023-04-03T05:41:32;10.33;;;5.37;;
19733;SDS011;10018;51.230;7.860;2023-04-03T05:43:58;11.10;;;5.87;;
19733;SDS011;10018;51.230;7.860;2023-04-03T05:46:23;9.07;;;5.60;;
19733;SDS011;10018;51.230;7.860;2023-04-03T05:48:49;10.87;;;5.20;;
19733;SDS011;10018;51.230;7.860;2023-04-03T05:51:19;10.47;;;4.73;;
19733;SDS011;10018;51.230;7.860;2023-04-03T05:53:48;11.07;;;5.57;;
19733;SDS011;10018;51.230;7.860;2023-04-03T05:56:17;8.70;;;4.57;;
19733;SDS011;10018;51.230;7.860;2023-04-03T05:58:45;10.73;;;4.97;;
19733;SDS011;10018;51.230;7.860;2023-04-03T06:01:11;11.43;;;4.80;;
19733;SDS011;10018;51.230;7.860;2023-04-03T06:03:39;12.00;;;4.80;;
19733;SDS011;10018;51.230;7.860;2023-04-03T06:06:05;11.67;;;5.17;;
19733;SDS011;10018;51.230;7.860;2023-04-03T06:08:31;10.07;;;5.13;;
19733;SDS011;10018;51.230;7.860;2023-04-03T06:10:57;12.67;;;4.53;;
19733;SDS011;10018;51.230;7.860;2023-04-03T06:13:23;10.73;;;4.70;;
19733;SDS011;10018;51.230;7.860;2023-04-03T06:15:48;11.43;;;4.57;;
19733;SDS011;10018;51.230;7.860;2023-04-03T06:18:14;14.40;;;4.60;;
19733;SDS011;10018;51.230;7.860;2023-04-03T06:20:40;12.83;;;4.83;;
19733;SDS011;10018;51.230;7.860;2023-04-03T06:23:05;7.30;;;3.70;;
19733;SDS011;10018;51.230;7.860;2023-04-03T06:25:32;9.23;;;3.67;;
19733;SDS011;10018;51.230;7.860;2023-04-03T06:27:58;13.53;;;5.80;;
19733;SDS011;10018;51.230;7.860;2023-04-03T06:30:24;8.97;;;3.80;;
19733;SDS011;10018;51.230;7.860;2023-04-03T06:32:50;11.10;;;4.43;;
19733;SDS011;10018;51.230;7.860;2023-04-03T06:35:18;10.10;;;3.23;;
19733;SDS011;10018;51.230;7.860;2023-04-03T06:37:44;10.43;;;4.00;;
19733;SDS011;10018;51.230;7.860;2023-04-03T06:40:14;8.77;;;2.93;;
19733;SDS011;10018;51.230;7.860;2023-04-03T06:42:46;7.80;;;2.80;;
19733;SDS011;10018;51.230;7.860;2023-04-03T06:45:14;9.70;;;3.37;;
19733;SDS011;10018;51.230;7.860;2023-04-03T06:47:40;8.53;;;3.77;;
19733;SDS011;10018;51.230;7.860;2023-04-03T06:50:05;9.17;;;3.57;;
19733;SDS011;10018;51.230;7.860;2023-04-03T06:52:32;9.97;;;3.23;;
19733;SDS011;10018;51.230;7.860;2023-04-03T06:54:57;12.37;;;3.37;;
19733;SDS011;10018;51.230;7.860;2023-04-03T06:57:24;10.20;;;3.30;;
19733;SDS011;10018;51.230;7.860;2023-04-03T06:59:50;7.03;;;2.83;;
19733;SDS011;10018;51.230;7.860;2023-04-03T07:02:16;8.83;;;2.77;;
19733;SDS011;10018;51.230;7.860;2023-04-03T07:04:42;7.60;;;2.50;;
19733;SDS011;10018;51.230;7.860;2023-04-03T07:07:07;8.47;;;2.70;;
19733;SDS011;10018;51.230;7.860;2023-04-03T07:09:33;8.73;;;2.70;;
19733;SDS011;10018;51.230;7.860;2023-04-03T07:11:59;8.20;;;2.43;;
19733;SDS011;10018;51.230;7.860;2023-04-03T07:14:25;8.77;;;2.30;;
19733;SDS011;10018;51.230;7.860;2023-04-03T07:16:53;8.47;;;3.03;;
19733;SDS011;10018;51.230;7.860;2023-04-03T07:19:19;6.97;;;2.40;;
19733;SDS011;10018;51.230;7.860;2023-04-03T07:21:46;6.10;;;2.33;;
19733;SDS011;10018;51.230;7.860;2023-04-03T07:24:11;5.90;;;2.27;;
19733;SDS011;10018;51.230;7.860;2023-04-03T07:26:37;8.67;;;2.33;;
19733;SDS011;10018;51.230;7.860;2023-04-03T07:29:06;9.90;;;2.70;;
19733;SDS011;10018;51.230;7.860;2023-04-03T07:31:32;6.93;;;2.20;;
19733;SDS011;10018;51.230;7.860;2023-04-03T07:33:58;7.73;;;2.57;;
19733;SDS011;10018;51.230;7.860;2023-04-03T07:36:24;6.60;;;2.10;;
19733;SDS011;10018;51.230;7.860;2023-04-03T07:38:49;5.37;;;2.10;;
19733;SDS011;10018;51.230;7.860;2023-04-03T07:41:16;6.17;;;2.30;;
19733;SDS011;10018;51.230;7.860;2023-04-03T07:43:44;8.23;;;2.20;;
19733;SDS011;10018;51.230;7.860;2023-04-03T07:46:10;7.17;;;2.00;;
19733;SDS011;10018;51.230;7.860;2023-04-03T07:48:38;6.27;;;1.90;;
19733;SDS011;10018;51.230;7.860;2023-04-03T07:51:04;7.27;;;2.03;;
19733;SDS011;10018;51.230;7.860;2023-04-03T07:53:30;7.07;;;1.80;;
19733;SDS011;10018;51.230;7.860;2023-04-03T07:55:57;6.53;;;2.07;;
19733;SDS011;10018;51.230;7.860;2023-04-03T07:58:23;4.50;;;1.80;;
19733;SDS011;10018;51.230;7.860;2023-04-03T08:00:49;9.77;;;2.10;;
19733;SDS011;10018;51.230;7.860;2023-04-03T08:03:15;8.10;;;2.20;;
19733;SDS011;10018;51.230;7.860;2023-04-03T08:05:44;5.70;;;1.50;;
19733;SDS011;10018;51.230;7.860;2023-04-03T08:08:11;4.37;;;1.40;;
19733;SDS011;10018;51.230;7.860;2023-04-03T08:10:41;8.60;;;2.30;;
19733;SDS011;10018;51.230;7.860;2023-04-03T08:13:12;6.47;;;1.93;;
19733;SDS011;10018;51.230;7.860;2023-04-03T08:15:38;4.40;;;1.60;;
19733;SDS011;10018;51.230;7.860;2023-04-03T08:18:04;3.00;;;1.07;;
19733;SDS011;10018;51.230;7.860;2023-04-03T08:20:29;4.57;;;1.10;;
19733;SDS011;10018;51.230;7.860;2023-04-03T08:22:55;3.80;;;1.10;;
19733;SDS011;10018;51.230;7.860;2023-04-03T08:25:21;4.57;;;1.10;;
19733;SDS011;10018;51.230;7.860;2023-04-03T08:27:48;5.00;;;1.40;;
19733;SDS011;10018;51.230;7.860;2023-04-03T08:30:16;7.13;;;1.10;;
19733;SDS011;10018;51.230;7.860;2023-04-03T08:32:42;4.57;;;1.00;;
19733;SDS011;10018;51.230;7.860;2023-04-03T08:35:09;3.43;;;0.90;;
19733;SDS011;10018;51.230;7.860;2023-04-03T08:37:35;3.73;;;0.90;;
19733;SDS011;10018;51.230;7.860;2023-04-03T08:40:05;2.83;;;1.13;;
19733;SDS011;10018;51.230;7.860;2023-04-03T08:45:28;5.27;;;1.00;;
19733;SDS011;10018;51.230;7.860;2023-04-03T08:48:19;4.43;;;1.00;;
19733;SDS011;10018;51.230;7.860;2023-04-03T08:50:50;3.07;;;0.83;;
19733;SDS011;10018;51.230;7.860;2023-04-03T08:53:24;4.80;;;1.10;;
19733;SDS011;10018;51.230;7.860;2023-04-03T08:55:53;2.47;;;0.90;;
19733;SDS011;10018;51.230;7.860;2023-04-03T08:58:24;1.73;;;0.80;;
19733;SDS011;10018;51.230;7.860;2023-04-03T09:03:36;3.93;;;0.80;;
19733;SDS011;10018;51.230;7.860;2023-04-03T09:11:38;2.23;;;0.70;;
19733;SDS011;10018;51.230;7.860;2023-04-03T09:14:22;2.03;;;0.83;;
19733;SDS011;10018;51.230;7.860;2023-04-03T09:17:12;2.07;;;0.70;;
19733;SDS011;10018;51.230;7.860;2023-04-03T09:22:26;3.87;;;0.80;;
19733;SDS011;10018;51.230;7.860;2023-04-03T09:25:08;2.33;;;0.80;;
19733;SDS011;10018;51.230;7.860;2023-04-03T09:27:35;2.23;;;0.70;;
19733;SDS011;10018;51.230;7.860;2023-04-03T09:30:02;3.57;;;0.90;;
19733;SDS011;10018;51.230;7.860;2023-04-03T09:32:32;3.40;;;1.20;;
19733;SDS011;10018;51.230;7.860;2023-04-03T09:35:04;2.17;;;0.80;;
19733;SDS011;10018;51.230;7.860;2023-04-03T09:37:50;6.73;;;1.00;;
19733;SDS011;10018;51.230;7.860;2023-04-03T09:42:50;2.63;;;0.70;;
19733;SDS011;10018;51.230;7.860;2023-04-03T09:48:06;2.30;;;0.70;;
19733;SDS011;10018;51.230;7.860;2023-04-03T09:50:34;1.67;;;0.80;;
19733;SDS011;10018;51.230;7.860;2023-04-03T09:53:05;3.40;;;0.80;;
19733;SDS011;10018;51.230;7.860;2023-04-03T09:55:43;3.67;;;0.70;;
19733;SDS011;10018;51.230;7.860;2023-04-03T09:58:22;1.93;;;0.80;;
19733;SDS011;10018;51.230;7.860;2023-04-03T10:01:00;4.13;;;0.70;;
19733;SDS011;10018;51.230;7.860;2023-04-03T10:03:36;3.27;;;0.90;;
19733;SDS011;10018;51.230;7.860;2023-04-03T10:06:04;2.90;;;0.80;;
19733;SDS011;10018;51.230;7.860;2023-04-03T10:09:02;3.30;;;0.80;;
19733;SDS011;10018;51.230;7.860;2023-04-03T10:11:31;2.63;;;0.70;;
19733;SDS011;10018;51.230;7.860;2023-04-03T10:14:00;4.67;;;0.90;;
19733;SDS011;10018;51.230;7.860;2023-04-03T10:16:32;1.80;;;0.80;;
19733;SDS011;10018;51.230;7.860;2023-04-03T10:19:20;1.37;;;0.67;;
19733;SDS011;10018;51.230;7.860;2023-04-03T10:25:02;2.58;;;0.80;;
19733;SDS011;10018;51.230;7.860;2023-04-03T10:27:53;2.80;;;1.00;;
19733;SDS011;10018;51.230;7.860;2023-04-03T10:36:03;1.90;;;0.80;;
19733;SDS011;10018;51.230;7.860;2023-04-03T10:46:50;1.73;;;0.70;;
19733;SDS011;10018;51.230;7.860;2023-04-03T10:54:39;4.33;;;0.87;;
19733;SDS011;10018;51.230;7.860;2023-04-03T10:57:21;2.33;;;0.80;;
19733;SDS011;10018;51.230;7.860;2023-04-03T11:02:33;5.07;;;0.97;;
19733;SDS011;10018;51.230;7.860;2023-04-03T11:05:04;2.27;;;0.90;;
19733;SDS011;10018;51.230;7.860;2023-04-03T11:07:39;4.27;;;1.00;;
19733;SDS011;10018;51.230;7.860;2023-04-03T11:10:21;4.33;;;0.87;;
19733;SDS011;10018;51.230;7.860;2023-04-03T11:12:58;5.57;;;1.10;;
19733;SDS011;10018;51.230;7.860;2023-04-03T11:15:33;5.53;;;1.30;;
19733;SDS011;10018;51.230;7.860;2023-04-03T11:18:12;4.00;;;1.50;;
19733;SDS011;10018;51.230;7.860;2023-04-03T11:20:43;2.23;;;0.80;;
19733;SDS011;10018;51.230;7.860;2023-04-03T11:23:24;4.37;;;1.40;;
19733;SDS011;10018;51.230;7.860;2023-04-03T11:25:54;3.60;;;0.90;;
19733;SDS011;10018;51.230;7.860;2023-04-03T11:28:24;3.00;;;0.80;;
19733;SDS011;10018;51.230;7.860;2023-04-03T11:31:03;2.77;;;0.90;;
19733;SDS011;10018;51.230;7.860;2023-04-03T11:33:49;3.73;;;1.10;;
19733;SDS011;10018;51.230;7.860;2023-04-03T11:36:33;3.50;;;1.20;;
19733;SDS011;10018;51.230;7.860;2023-04-03T11:39:22;2.90;;;1.00;;
19733;SDS011;10018;51.230;7.860;2023-04-03T11:42:12;3.10;;;1.10;;
19733;SDS011;10018;51.230;7.860;2023-04-03T11:44:50;3.10;;;1.13;;
19733;SDS011;10018;51.230;7.860;2023-04-03T11:48:02;5.30;;;1.30;;
19733;SDS011;10018;51.230;7.860;2023-04-03T11:50:09;3.03;;;1.00;;
19733;SDS011;10018;51.230;7.860;2023-04-03T12:05:53;3.30;;;1.17;;
19733;SDS011;10018;51.230;7.860;2023-04-03T12:27:07;4.80;;;1.20;;
19733;SDS011;10018;51.230;7.860;2023-04-03T12:40:31;3.13;;;1.27;;
19733;SDS011;10018;51.230;7.860;2023-04-03T12:48:51;6.50;;;1.47;;
19733;SDS011;10018;51.230;7.860;2023-04-03T12:51:23;5.37;;;1.30;;
19733;SDS011;10018;51.230;7.860;2023-04-03T12:56:43;2.87;;;1.30;;
19733;SDS011;10018;51.230;7.860;2023-04-03T12:59:25;3.80;;;1.23;;
19733;SDS011;10018;51.230;7.860;2023-04-03T13:01:58;4.27;;;1.30;;
19733;SDS011;10018;51.230;7.860;2023-04-03T13:04:28;5.30;;;1.30;;
19733;SDS011;10018;51.230;7.860;2023-04-03T13:06:56;3.57;;;1.20;;
19733;SDS011;10018;51.230;7.860;2023-04-03T13:11:56;4.20;;;1.23;;
19733;SDS011;10018;51.230;7.860;2023-04-03T13:14:24;2.50;;;1.00;;
19733;SDS011;10018;51.230;7.860;2023-04-03T13:19:19;8.50;;;2.07;;
19733;SDS011;10018;51.230;7.860;2023-04-03T13:21:45;4.77;;;1.67;;
19733;SDS011;10018;51.230;7.860;2023-04-03T13:24:11;7.27;;;1.80;;
19733;SDS011;10018;51.230;7.860;2023-04-03T13:26:37;4.90;;;2.23;;
19733;SDS011;10018;51.230;7.860;2023-04-03T13:29:05;7.77;;;2.40;;
19733;SDS011;10018;51.230;7.860;2023-04-03T13:31:36;4.93;;;2.27;;
19733;SDS011;10018;51.230;7.860;2023-04-03T13:36:46;4.97;;;1.40;;
19733;SDS011;10018;51.230;7.860;2023-04-03T13:41:55;4.47;;;1.60;;
19733;SDS011;10018;51.230;7.860;2023-04-03T13:46:49;4.60;;;1.40;;
19733;SDS011;10018;51.230;7.860;2023-04-03T13:49:39;5.10;;;1.80;;
19733;SDS011;10018;51.230;7.860;2023-04-03T13:52:17;4.43;;;1.33;;
19733;SDS011;10018;51.230;7.860;2023-04-03T13:54:57;5.57;;;1.40;;
19733;SDS011;10018;51.230;7.860;2023-04-03T13:57:27;2.60;;;1.07;;
19733;SDS011;10018;51.230;7.860;2023-04-03T13:59:53;5.00;;;1.43;;
19733;SDS011;10018;51.230;7.860;2023-04-03T14:02:30;4.30;;;1.43;;
19733;SDS011;10018;51.230;7.860;2023-04-03T14:04:58;5.30;;;1.40;;
19733;SDS011;10018;51.230;7.860;2023-04-03T14:07:27;4.30;;;1.77;;
19733;SDS011;10018;51.230;7.860;2023-04-03T14:09:54;4.83;;;1.53;;
19733;SDS011;10018;51.230;7.860;2023-04-03T14:12:31;6.87;;;1.77;;
19733;SDS011;10018;51.230;7.860;2023-04-03T14:15:01;10.70;;;1.93;;
19733;SDS011;10018;51.230;7.860;2023-04-03T14:17:32;4.03;;;1.17;;
19733;SDS011;10018;51.230;7.860;2023-04-03T14:19:58;5.00;;;1.30;;
19733;SDS011;10018;51.230;7.860;2023-04-03T14:22:27;3.00;;;1.30;;
19733;SDS011;10018;51.230;7.860;2023-04-03T14:24:55;2.80;;;1.33;;
19733;SDS011;10018;51.230;7.860;2023-04-03T14:27:24;3.17;;;1.33;;
19733;SDS011;10018;51.230;7.860;2023-04-03T14:29:55;3.53;;;1.40;;
19733;SDS011;10018;51.230;7.860;2023-04-03T14:32:22;5.20;;;1.43;;
19733;SDS011;10018;51.230;7.860;2023-04-03T14:34:51;4.53;;;1.30;;
19733;SDS011;10018;51.230;7.860;2023-04-03T14:37:19;3.87;;;1.10;;
19733;SDS011;10018;51.230;7.860;2023-04-03T14:39:48;3.17;;;1.27;;
19733;SDS011;10018;51.230;7.860;2023-04-03T14:42:18;3.30;;;1.30;;
19733;SDS011;10018;51.230;7.860;2023-04-03T14:44:55;4.33;;;1.50;;
19733;SDS011;10018;51.230;7.860;2023-04-03T14:47:23;3.50;;;1.10;;
19733;SDS011;10018;51.230;7.860;2023-04-03T14:49:51;3.67;;;1.40;;
19733;SDS011;10018;51.230;7.860;2023-04-03T14:52:24;2.30;;;0.97;;
19733;SDS011;10018;51.230;7.860;2023-04-03T14:54:51;4.33;;;1.13;;
19733;SDS011;10018;51.230;7.860;2023-04-03T14:57:18;4.47;;;1.33;;
19733;SDS011;10018;51.230;7.860;2023-04-03T14:59:44;3.57;;;1.50;;
19733;SDS011;10018;51.230;7.860;2023-04-03T15:02:30;3.93;;;1.50;;
19733;SDS011;10018;51.230;7.860;2023-04-03T15:04:57;6.07;;;1.60;;
19733;SDS011;10018;51.230;7.860;2023-04-03T15:07:25;3.77;;;1.40;;
19733;SDS011;10018;51.230;7.860;2023-04-03T15:09:53;5.57;;;1.60;;
19733;SDS011;10018;51.230;7.860;2023-04-03T15:12:22;5.33;;;1.53;;
19733;SDS011;10018;51.230;7.860;2023-04-03T15:14:48;3.80;;;1.30;;
19733;SDS011;10018;51.230;7.860;2023-04-03T15:17:16;6.50;;;1.50;;
19733;SDS011;10018;51.230;7.860;2023-04-03T15:19:44;3.70;;;1.20;;
19733;SDS011;10018;51.230;7.860;2023-04-03T15:22:13;5.70;;;1.40;;
19733;SDS011;10018;51.230;7.860;2023-04-03T15:24:40;3.70;;;1.60;;
19733;SDS011;10018;51.230;7.860;2023-04-03T15:27:06;4.20;;;1.70;;
19733;SDS011;10018;51.230;7.860;2023-04-03T15:29:32;3.93;;;1.30;;
19733;SDS011;10018;51.230;7.860;2023-04-03T15:31:58;4.10;;;1.37;;
19733;SDS011;10018;51.230;7.860;2023-04-03T15:34:23;3.57;;;1.40;;
19733;SDS011;10018;51.230;7.860;2023-04-03T15:36:51;5.63;;;1.90;;
19733;SDS011;10018;51.230;7.860;2023-04-03T15:39:17;4.80;;;1.60;;
19733;SDS011;10018;51.230;7.860;2023-04-03T15:41:43;4.00;;;1.50;;
19733;SDS011;10018;51.230;7.860;2023-04-03T15:44:10;5.57;;;1.47;;
19733;SDS011;10018;51.230;7.860;2023-04-03T15:46:37;3.77;;;1.43;;
19733;SDS011;10018;51.230;7.860;2023-04-03T15:49:06;5.03;;;1.67;;
19733;SDS011;10018;51.230;7.860;2023-04-03T15:51:31;3.30;;;1.40;;
19733;SDS011;10018;51.230;7.860;2023-04-03T15:53:57;9.13;;;2.50;;
19733;SDS011;10018;51.230;7.860;2023-04-03T15:56:22;5.97;;;1.97;;
19733;SDS011;10018;51.230;7.860;2023-04-03T15:58:48;3.17;;;1.60;;
19733;SDS011;10018;51.230;7.860;2023-04-03T16:01:13;5.07;;;1.40;;
19733;SDS011;10018;51.230;7.860;2023-04-03T16:03:40;5.53;;;1.90;;
19733;SDS011;10018;51.230;7.860;2023-04-03T16:06:19;5.00;;;1.60;;
19733;SDS011;10018;51.230;7.860;2023-04-03T16:08:47;4.83;;;1.50;;
19733;SDS011;10018;51.230;7.860;2023-04-03T16:11:13;4.90;;;1.77;;
19733;SDS011;10018;51.230;7.860;2023-04-03T16:13:39;6.27;;;1.63;;
19733;SDS011;10018;51.230;7.860;2023-04-03T16:16:05;5.37;;;1.80;;
19733;SDS011;10018;51.230;7.860;2023-04-03T16:18:34;5.00;;;1.63;;
19733;SDS011;10018;51.230;7.860;2023-04-03T16:21:00;3.40;;;1.67;;
19733;SDS011;10018;51.230;7.860;2023-04-03T16:23:26;4.27;;;1.60;;
19733;SDS011;10018;51.230;7.860;2023-04-03T16:25:52;5.47;;;1.83;;
19733;SDS011;10018;51.230;7.860;2023-04-03T16:28:18;5.17;;;1.30;;
19733;SDS011;10018;51.230;7.860;2023-04-03T16:30:44;4.83;;;2.00;;
19733;SDS011;10018;51.230;7.860;2023-04-03T16:33:14;6.23;;;1.60;;
19733;SDS011;10018;51.230;7.860;2023-04-03T16:35:39;5.33;;;1.97;;
19733;SDS011;10018;51.230;7.860;2023-04-03T16:38:07;6.83;;;1.93;;
19733;SDS011;10018;51.230;7.860;2023-04-03T16:40:32;4.77;;;1.70;;